Terminal Aerodrome Forecast
Issued by NWS

Home | Current Version | Previous Version | Text Only | Print | Product List | Glossary On
Versions: 1 2 3 4 5 6 7 8 9 10 11 12 13 14
000
FTUS46 KSEW 071500 AAB
TAFOLM
TAF AMD
KOLM 071500Z 0715/0812 24005KT P6SM OVC020
     FM071900 25005KT P6SM SCT250
     FM080300 VRB03KT P6SM SKC=

USA.gov is the U.S. government's official web portal to all federal, state and local government web resources and services.